createdAt,value
2018-03-14T00:00:32.235Z,16.2
2018-03-14T00:01:21.592Z,16.2
2018-03-14T00:02:11.514Z,16.3
2018-03-14T00:03:01.934Z,16.3
2018-03-14T00:03:54.236Z,16.3
2018-03-14T00:04:42.514Z,16.3
2018-03-14T00:05:32.879Z,16.3
2018-03-14T00:06:22.334Z,16.2
2018-03-14T00:07:15.934Z,16.3
2018-03-14T00:08:01.753Z,16.2
2018-03-14T00:08:53.140Z,16.3
2018-03-14T00:09:42.479Z,16.2
2018-03-14T00:10:32.063Z,16.2
2018-03-14T00:11:21.391Z,16.2
2018-03-14T00:12:12.653Z,16.2
2018-03-14T00:13:05.515Z,16.2
2018-03-14T00:13:53.238Z,16.2
2018-03-14T00:14:42.832Z,16.2
2018-03-14T00:15:32.909Z,16.2
2018-03-14T00:16:24.348Z,16.2
2018-03-14T00:17:12.808Z,16.2
2018-03-14T00:18:02.553Z,16.2
2018-03-14T00:18:52.626Z,16.2
2018-03-14T00:19:43.728Z,16.2
2018-03-14T00:20:33.969Z,16.2
2018-03-14T00:21:23.147Z,16.2
2018-03-14T00:22:14.427Z,16.2
2018-03-14T00:23:04.363Z,16.2
2018-03-14T00:23:53.836Z,16.3
2018-03-14T00:24:43.066Z,16.2
2018-03-14T00:25:37.227Z,16.2
2018-03-14T00:26:23.205Z,16.2
2018-03-14T00:27:14.675Z,16.2
2018-03-14T00:28:04.203Z,16.2
2018-03-14T00:28:53.884Z,16.2
2018-03-14T00:29:44.225Z,16.1
2018-03-14T00:30:34.737Z,16.1
2018-03-14T00:31:22.804Z,16.2
2018-03-14T00:32:15.360Z,16.2
2018-03-14T00:33:03.998Z,16.2
2018-03-14T00:33:55.145Z,16.2
2018-03-14T00:34:47.072Z,16.2
2018-03-14T00:35:34.512Z,16.2
2018-03-14T00:36:25.475Z,16.2
2018-03-14T00:37:13.462Z,16.2
2018-03-14T00:38:04.437Z,16.2
2018-03-14T00:38:54.657Z,16.2
2018-03-14T00:39:44.976Z,16.2
2018-03-14T00:40:37.125Z,16.2
2018-03-14T00:41:26.312Z,16.1
2018-03-14T00:42:15.787Z,16.1
2018-03-14T00:43:05.536Z,16.1
2018-03-14T00:44:00.154Z,16.1
2018-03-14T00:44:46.546Z,16.1
2018-03-14T00:45:35.994Z,16.1
2018-03-14T00:46:25.679Z,16.1
2018-03-14T00:47:18.511Z,16.1
2018-03-14T00:48:06.725Z,16.1
2018-03-14T00:48:57.064Z,16.1
2018-03-14T00:49:48.101Z,16.1
2018-03-14T00:50:36.565Z,16.1
2018-03-14T00:51:27.258Z,16.1
2018-03-14T00:52:17.856Z,16.2
2018-03-14T00:53:11.898Z,16.2
2018-03-14T00:53:58.016Z,16.2
2018-03-14T00:54:47.528Z,16.1
2018-03-14T00:55:37.796Z,16.1
2018-03-14T00:56:27.606Z,16.1
2018-03-14T00:57:17.955Z,16.2
2018-03-14T00:58:06.376Z,16.2
2018-03-14T00:58:56.371Z,16.1
2018-03-14T00:59:47.314Z,16.1
2018-03-14T01:00:36.381Z,16.1
2018-03-14T01:01:27.318Z,16.1
2018-03-14T01:02:19.334Z,16.1
2018-03-14T01:03:07.263Z,16.1
2018-03-14T01:03:58.103Z,16.1
2018-03-14T01:04:45.847Z,16.1
2018-03-14T01:05:36.547Z,16.1
2018-03-14T01:06:27.300Z,16.1
2018-03-14T01:07:16.781Z,16.1
2018-03-14T01:08:06.393Z,16.1
2018-03-14T01:08:56.650Z,16.1
2018-03-14T01:09:46.735Z,16.1
2018-03-14T01:10:37.852Z,16.1
2018-03-14T01:11:28.034Z,16.1
2018-03-14T01:12:16.330Z,16.1
2018-03-14T01:13:06.657Z,16.1
2018-03-14T01:13:57.200Z,16.1
2018-03-14T01:14:46.687Z,16.1
2018-03-14T01:15:37.687Z,16.1
2018-03-14T01:16:28.016Z,16.1
2018-03-14T01:17:17.984Z,16.1
2018-03-14T01:18:06.063Z,16.1
2018-03-14T01:18:57.671Z,16.1
2018-03-14T01:19:47.807Z,16.1
2018-03-14T01:20:37.195Z,16.1
2018-03-14T01:21:28.317Z,16.1
2018-03-14T01:22:17.717Z,16.1
2018-03-14T01:23:08.007Z,16.1
2018-03-14T01:23:58.329Z,16.1
2018-03-14T01:24:46.584Z,16.1
2018-03-14T01:25:38.009Z,16.1
2018-03-14T01:26:29.078Z,16.1
2018-03-14T01:27:18.404Z,16.1
2018-03-14T01:28:07.938Z,16.1
2018-03-14T01:28:57.870Z,16.1
2018-03-14T01:29:49.849Z,16.1
2018-03-14T01:30:38.451Z,16.1
2018-03-14T01:31:29.538Z,16.1
2018-03-14T01:32:19.689Z,16.1
2018-03-14T01:33:08.533Z,16.1
2018-03-14T01:33:59.031Z,16.1
2018-03-14T01:34:48.294Z,16.1
2018-03-14T01:35:41.298Z,16.1
2018-03-14T01:36:28.133Z,16.1
2018-03-14T01:37:17.590Z,16.1
2018-03-14T01:38:09.293Z,16.1
2018-03-14T01:38:59.585Z,16.1
2018-03-14T01:39:48.808Z,16.1
2018-03-14T01:40:39.448Z,16.1
2018-03-14T01:41:29.205Z,16.1
2018-03-14T01:42:19.139Z,16.1
2018-03-14T01:43:08.687Z,16.1
2018-03-14T01:43:59.408Z,16.1
2018-03-14T01:44:50.240Z,16.1
2018-03-14T01:45:39.720Z,16.1
2018-03-14T01:46:30.477Z,16.1
2018-03-14T01:47:19.852Z,16.1
2018-03-14T01:48:13.574Z,16.1
2018-03-14T01:48:59.452Z,16.1
2018-03-14T01:49:50.624Z,16.1
2018-03-14T01:50:39.737Z,16.1
2018-03-14T01:51:29.896Z,16.1
2018-03-14T01:52:20.013Z,16.1
2018-03-14T01:53:09.992Z,16.1
2018-03-14T01:54:01.590Z,16.1
2018-03-14T01:54:50.023Z,16.1
2018-03-14T01:55:39.857Z,16.1
2018-03-14T01:56:30.179Z,16.1
2018-03-14T01:57:20.034Z,16.1
2018-03-14T01:58:10.702Z,16.1
2018-03-14T01:59:01.438Z,16.1
2018-03-14T01:59:50.874Z,16
2018-03-14T02:00:41.481Z,16
2018-03-14T02:01:30.745Z,16.1
2018-03-14T02:02:20.014Z,16
2018-03-14T02:03:12.682Z,16
2018-03-14T02:04:01.080Z,16
2018-03-14T02:04:50.262Z,16
2018-03-14T02:05:40.412Z,16
2018-03-14T02:06:31.784Z,16
2018-03-14T02:07:21.352Z,16
2018-03-14T02:08:10.892Z,16
2018-03-14T02:09:00.094Z,16.1
2018-03-14T02:09:51.181Z,16.1
2018-03-14T02:10:41.383Z,16.1
2018-03-14T02:11:31.442Z,16.1
2018-03-14T02:12:24.290Z,16.1
2018-03-14T02:13:11.132Z,16.1
2018-03-14T02:14:01.234Z,16.1
2018-03-14T02:14:51.699Z,16.1
2018-03-14T02:15:40.859Z,16
2018-03-14T02:16:31.773Z,16
2018-03-14T02:17:21.486Z,16
2018-03-14T02:18:13.123Z,16
2018-03-14T02:19:02.148Z,16
2018-03-14T02:19:52.973Z,16
2018-03-14T02:20:42.562Z,16.1
2018-03-14T02:21:34.841Z,16
2018-03-14T02:22:21.843Z,16
2018-03-14T02:23:10.935Z,16
2018-03-14T02:24:01.949Z,16
2018-03-14T02:24:52.821Z,16
2018-03-14T02:25:43.645Z,16
2018-03-14T02:26:33.033Z,16
2018-03-14T02:27:25.798Z,16
2018-03-14T02:28:13.705Z,16
2018-03-14T02:29:03.151Z,16
2018-03-14T02:29:53.540Z,16
2018-03-14T02:30:49.302Z,16
2018-03-14T02:31:35.035Z,16
2018-03-14T02:32:24.495Z,16
2018-03-14T02:33:14.848Z,16
2018-03-14T02:34:04.640Z,16
2018-03-14T02:34:54.603Z,16
2018-03-14T02:35:45.304Z,16
2018-03-14T02:36:38.174Z,16
2018-03-14T02:37:25.147Z,16
2018-03-14T02:38:14.948Z,16
2018-03-14T02:39:05.585Z,16
2018-03-14T02:39:59.377Z,16
2018-03-14T02:40:45.730Z,16
2018-03-14T02:41:34.348Z,15.9
2018-03-14T02:42:23.583Z,16
2018-03-14T02:43:13.604Z,16
2018-03-14T02:44:03.075Z,16
2018-03-14T02:44:53.590Z,16
2018-03-14T02:45:43.749Z,16
2018-03-14T02:46:33.745Z,16
2018-03-14T02:47:23.888Z,15.9
2018-03-14T02:48:14.455Z,15.9
2018-03-14T02:49:03.341Z,16
2018-03-14T02:49:53.644Z,16
2018-03-14T02:50:44.530Z,15.9
2018-03-14T02:51:33.705Z,16
2018-03-14T02:52:25.300Z,15.9
2018-03-14T02:53:15.038Z,15.9
2018-03-14T02:54:04.067Z,16
2018-03-14T02:54:54.016Z,15.9
2018-03-14T02:55:44.863Z,16
2018-03-14T02:56:34.716Z,15.9
2018-03-14T02:57:25.800Z,16
2018-03-14T02:58:14.501Z,15.9
2018-03-14T02:59:05.674Z,16
2018-03-14T02:59:55.157Z,15.9
2018-03-14T03:00:45.819Z,15.9
2018-03-14T03:01:34.376Z,16
2018-03-14T03:02:24.072Z,15.9
2018-03-14T03:03:14.441Z,15.9
2018-03-14T03:04:05.271Z,15.9
2018-03-14T03:04:55.606Z,15.9
2018-03-14T03:05:45.117Z,15.9
2018-03-14T03:06:34.993Z,15.9
2018-03-14T03:07:25.671Z,15.9
2018-03-14T03:08:15.086Z,15.9
2018-03-14T03:09:05.801Z,15.9
2018-03-14T03:09:55.661Z,15.9
2018-03-14T03:10:45.375Z,15.9
2018-03-14T03:11:35.531Z,15.9
2018-03-14T03:12:25.487Z,15.9
2018-03-14T03:13:15.616Z,15.9
2018-03-14T03:14:06.430Z,15.9
2018-03-14T03:14:55.616Z,15.9
2018-03-14T03:15:45.833Z,15.9
2018-03-14T03:16:35.962Z,15.9
2018-03-14T03:17:26.990Z,15.9
2018-03-14T03:18:16.102Z,15.9
2018-03-14T03:19:05.932Z,15.9
2018-03-14T03:19:57.172Z,15.9
2018-03-14T03:20:47.846Z,15.9
2018-03-14T03:21:37.008Z,15.9
2018-03-14T03:22:26.398Z,15.9
2018-03-14T03:23:16.697Z,15.9
2018-03-14T03:24:06.710Z,15.9
2018-03-14T03:24:56.704Z,15.9
2018-03-14T03:25:47.077Z,15.9
2018-03-14T03:26:36.501Z,15.9
2018-03-14T03:27:26.374Z,15.9
2018-03-14T03:28:17.456Z,15.9
2018-03-14T03:29:06.494Z,15.9
2018-03-14T03:29:57.324Z,15.9
2018-03-14T03:30:47.844Z,15.9
2018-03-14T03:31:38.229Z,15.9
2018-03-14T03:32:27.767Z,15.9
2018-03-14T03:33:17.372Z,15.9
2018-03-14T03:34:07.808Z,15.9
2018-03-14T03:34:56.983Z,15.9
2018-03-14T03:35:47.643Z,15.9
2018-03-14T03:36:37.543Z,15.9
2018-03-14T03:37:27.439Z,15.9
2018-03-14T03:38:17.691Z,15.9
2018-03-14T03:39:07.470Z,15.9
2018-03-14T03:39:57.823Z,15.9
2018-03-14T03:40:47.984Z,15.9
2018-03-14T03:41:39.010Z,15.9
2018-03-14T03:42:28.603Z,15.9
2018-03-14T03:43:18.378Z,15.9
2018-03-14T03:44:08.328Z,15.9
2018-03-14T03:44:57.747Z,15.9
2018-03-14T03:45:47.956Z,15.9
2018-03-14T03:46:38.026Z,15.9
2018-03-14T03:47:27.898Z,15.9
2018-03-14T03:48:17.748Z,15.9
2018-03-14T03:49:08.174Z,15.9
2018-03-14T03:49:59.466Z,15.9
2018-03-14T03:50:49.274Z,15.9
2018-03-14T03:51:40.186Z,15.9
2018-03-14T03:52:28.252Z,15.9
2018-03-14T03:53:17.438Z,15.9
2018-03-14T03:54:08.855Z,15.9
2018-03-14T03:54:59.715Z,15.9
2018-03-14T03:55:48.987Z,15.9
2018-03-14T03:56:39.665Z,15.9
2018-03-14T03:57:28.514Z,15.9
2018-03-14T03:58:19.713Z,15.9
2018-03-14T03:59:09.543Z,15.9
2018-03-14T03:59:59.512Z,15.9
2018-03-14T04:00:50.332Z,15.9
2018-03-14T04:01:38.531Z,15.9
2018-03-14T04:02:29.192Z,15.9
2018-03-14T04:03:20.081Z,15.9
2018-03-14T04:04:10.162Z,15.9
2018-03-14T04:04:59.750Z,15.9
2018-03-14T04:05:50.257Z,15.9
2018-03-14T04:06:40.268Z,15.9
2018-03-14T04:07:30.398Z,15.9
2018-03-14T04:08:20.293Z,15.9
2018-03-14T04:09:10.695Z,15.9
2018-03-14T04:10:00.790Z,15.9
2018-03-14T04:10:50.057Z,15.9
2018-03-14T04:11:40.080Z,15.9
2018-03-14T04:12:29.744Z,15.9
2018-03-14T04:13:20.070Z,15.9
2018-03-14T04:14:10.613Z,15.8
2018-03-14T04:14:59.721Z,15.9
2018-03-14T04:15:50.829Z,15.9
2018-03-14T04:16:41.386Z,15.9
2018-03-14T04:17:30.262Z,15.8
2018-03-14T04:18:22.218Z,15.9
2018-03-14T04:19:12.044Z,15.8
2018-03-14T04:20:02.351Z,15.9
2018-03-14T04:20:52.103Z,15.8
2018-03-14T04:21:42.142Z,15.8
2018-03-14T04:22:32.235Z,15.8
2018-03-14T04:23:22.803Z,15.8
2018-03-14T04:24:12.883Z,15.8
2018-03-14T04:25:02.143Z,15.8
2018-03-14T04:25:52.338Z,15.8
2018-03-14T04:26:42.201Z,15.8
2018-03-14T04:27:32.856Z,15.8
2018-03-14T04:28:23.151Z,15.8
2018-03-14T04:29:12.687Z,15.8
2018-03-14T04:30:02.729Z,15.8
2018-03-14T04:30:52.222Z,15.8
2018-03-14T04:31:42.238Z,15.8
2018-03-14T04:32:32.666Z,15.8
2018-03-14T04:33:23.010Z,15.8
2018-03-14T04:34:13.303Z,15.8
2018-03-14T04:35:03.403Z,15.8
2018-03-14T04:35:52.898Z,15.8
2018-03-14T04:36:43.519Z,15.8
2018-03-14T04:37:33.363Z,15.8
2018-03-14T04:38:22.866Z,15.8
2018-03-14T04:39:13.412Z,15.8
2018-03-14T04:40:02.637Z,15.8
2018-03-14T04:40:53.304Z,15.8
2018-03-14T04:41:43.352Z,15.8
2018-03-14T04:42:33.898Z,15.8
2018-03-14T04:43:24.240Z,15.8
2018-03-14T04:44:13.460Z,15.8
2018-03-14T04:45:04.087Z,15.8
2018-03-14T04:45:54.187Z,15.8
2018-03-14T04:46:44.213Z,15.8
2018-03-14T04:47:34.592Z,15.8
2018-03-14T04:48:24.292Z,15.8
2018-03-14T04:49:13.864Z,15.8
2018-03-14T04:50:02.934Z,15.8
2018-03-14T04:50:52.717Z,15.8
2018-03-14T04:51:43.430Z,15.8
2018-03-14T04:52:34.195Z,15.8
2018-03-14T04:53:22.386Z,15.8
2018-03-14T04:54:13.547Z,15.8
2018-03-14T04:55:03.720Z,15.8
2018-03-14T04:55:53.697Z,15.8
2018-03-14T04:56:43.276Z,15.8
2018-03-14T04:57:33.217Z,15.8
2018-03-14T04:58:23.915Z,15.8
2018-03-14T04:59:13.354Z,15.8
2018-03-14T05:00:03.790Z,15.8
2018-03-14T05:00:53.992Z,15.8
2018-03-14T05:01:43.492Z,15.8
2018-03-14T05:02:33.637Z,15.8
2018-03-14T05:03:23.422Z,15.8
2018-03-14T05:04:14.180Z,15.8
2018-03-14T05:05:04.195Z,15.8
2018-03-14T05:05:54.164Z,15.8
2018-03-14T05:06:43.711Z,15.8
2018-03-14T05:07:33.647Z,15.8
2018-03-14T05:08:24.193Z,15.8
2018-03-14T05:09:14.470Z,15.8
2018-03-14T05:10:04.113Z,15.8
2018-03-14T05:10:55.182Z,15.8
2018-03-14T05:11:44.760Z,15.8
2018-03-14T05:12:34.769Z,15.8
2018-03-14T05:13:24.929Z,15.8
2018-03-14T05:14:15.622Z,15.8
2018-03-14T05:15:19.451Z,15.8
2018-03-14T05:15:55.335Z,15.8
2018-03-14T05:16:45.111Z,15.8
2018-03-14T05:17:34.566Z,15.8
2018-03-14T05:18:23.996Z,15.8
2018-03-14T05:19:15.546Z,15.8
2018-03-14T05:20:04.168Z,15.8
2018-03-14T05:20:54.912Z,15.8
2018-03-14T05:21:45.439Z,15.8
2018-03-14T05:22:34.975Z,15.8
2018-03-14T05:23:25.284Z,15.8
2018-03-14T05:24:14.460Z,15.8
2018-03-14T05:25:04.952Z,15.8
2018-03-14T05:25:55.463Z,15.8
2018-03-14T05:26:45.885Z,15.8
2018-03-14T05:27:34.297Z,15.8
2018-03-14T05:28:25.034Z,15.8
2018-03-14T05:29:15.792Z,15.8
2018-03-14T05:30:07.167Z,15.8
2018-03-14T05:30:56.156Z,15.8
2018-03-14T05:31:46.228Z,15.8
2018-03-14T05:32:35.246Z,15.8
2018-03-14T05:33:25.857Z,15.8
2018-03-14T05:34:15.149Z,15.8
2018-03-14T05:35:05.519Z,15.9
2018-03-14T05:35:55.566Z,15.9
2018-03-14T05:36:45.972Z,15.9
2018-03-14T05:37:36.864Z,15.9
2018-03-14T05:38:26.350Z,15.9
2018-03-14T05:39:16.028Z,15.9
2018-03-14T05:40:05.943Z,15.8
2018-03-14T05:40:57.341Z,15.9
2018-03-14T05:41:47.560Z,15.9
2018-03-14T05:42:37.004Z,15.9
2018-03-14T05:43:25.520Z,15.9
2018-03-14T05:44:16.890Z,15.9
2018-03-14T05:45:07.115Z,15.9
2018-03-14T05:45:57.057Z,15.9
2018-03-14T05:46:47.040Z,15.9
2018-03-14T05:47:35.970Z,15.9
2018-03-14T05:48:27.035Z,15.9
2018-03-14T05:49:17.098Z,15.9
2018-03-14T05:50:06.927Z,15.9
2018-03-14T05:50:57.231Z,15.9
2018-03-14T05:51:48.166Z,15.9
2018-03-14T05:52:36.053Z,15.9
2018-03-14T05:53:27.768Z,15.9
2018-03-14T05:54:18.258Z,15.9
2018-03-14T05:55:07.225Z,15.9
2018-03-14T05:55:57.564Z,15.9
2018-03-14T05:56:47.439Z,15.9
2018-03-14T05:57:38.076Z,15.9
2018-03-14T05:58:28.537Z,15.9
2018-03-14T05:59:18.494Z,15.9
2018-03-14T06:00:08.249Z,15.9
2018-03-14T06:00:57.634Z,15.9
2018-03-14T06:01:48.189Z,15.9
2018-03-14T06:02:38.966Z,16
2018-03-14T06:03:28.317Z,15.9
2018-03-14T06:04:18.729Z,15.9
2018-03-14T06:05:08.082Z,15.9
2018-03-14T06:05:57.622Z,15.9
2018-03-14T06:06:47.979Z,16
2018-03-14T06:07:39.067Z,15.9
2018-03-14T06:08:29.497Z,16
2018-03-14T06:09:18.266Z,16
2018-03-14T06:10:08.241Z,16
2018-03-14T06:10:57.930Z,15.9
2018-03-14T06:11:48.526Z,15.9
2018-03-14T06:12:38.791Z,15.9
2018-03-14T06:13:28.437Z,15.9
2018-03-14T06:14:18.772Z,15.9
2018-03-14T06:15:07.879Z,15.9
2018-03-14T06:15:57.824Z,15.9
2018-03-14T06:16:49.825Z,15.9
2018-03-14T06:17:39.732Z,15.9
2018-03-14T06:18:28.956Z,15.9
2018-03-14T06:19:19.021Z,16
2018-03-14T06:20:09.622Z,15.9
2018-03-14T06:20:59.358Z,16
2018-03-14T06:21:49.642Z,15.9
2018-03-14T06:22:38.438Z,15.9
2018-03-14T06:23:29.330Z,16
2018-03-14T06:24:19.579Z,16
2018-03-14T06:25:09.486Z,16
2018-03-14T06:25:59.521Z,16
2018-03-14T06:26:50.475Z,16
2018-03-14T06:27:41.199Z,16
2018-03-14T06:28:30.411Z,16
2018-03-14T06:29:20.154Z,16
2018-03-14T06:30:09.998Z,15.9
2018-03-14T06:31:00.651Z,15.9
2018-03-14T06:31:50.147Z,15.9
2018-03-14T06:32:40.513Z,15.9
2018-03-14T06:33:29.786Z,15.9
2018-03-14T06:34:19.428Z,15.9
2018-03-14T06:35:10.182Z,15.9
2018-03-14T06:36:00.533Z,15.9
2018-03-14T06:36:50.555Z,15.9
2018-03-14T06:37:40.355Z,15.9
2018-03-14T06:38:30.298Z,15.9
2018-03-14T06:39:21.643Z,15.9
2018-03-14T06:40:10.250Z,15.9
2018-03-14T06:41:01.857Z,15.9
2018-03-14T06:41:50.835Z,16
2018-03-14T06:42:40.292Z,15.9
2018-03-14T06:43:30.789Z,15.9
2018-03-14T06:44:20.785Z,15.9
2018-03-14T06:45:11.390Z,16
2018-03-14T06:46:01.108Z,16
2018-03-14T06:46:50.535Z,15.9
2018-03-14T06:47:41.276Z,15.9
2018-03-14T06:48:32.184Z,15.9
2018-03-14T06:49:21.469Z,15.9
2018-03-14T06:50:11.364Z,15.9
2018-03-14T06:51:01.884Z,15.9
2018-03-14T06:51:50.782Z,15.9
2018-03-14T06:52:39.884Z,15.9
2018-03-14T06:53:33.009Z,16
2018-03-14T06:54:22.356Z,16
2018-03-14T06:55:12.269Z,16
2018-03-14T06:56:02.230Z,15.9
2018-03-14T06:56:52.613Z,15.9
2018-03-14T06:57:42.284Z,16
2018-03-14T06:58:31.949Z,16
2018-03-14T06:59:21.343Z,15.9
2018-03-14T07:00:12.157Z,15.9
2018-03-14T07:01:02.822Z,15.9
2018-03-14T07:01:51.884Z,15.9
2018-03-14T07:02:41.938Z,15.9
2018-03-14T07:03:33.268Z,16
2018-03-14T07:04:22.381Z,15.9
2018-03-14T07:05:13.921Z,16
2018-03-14T07:06:04.226Z,15.9
2018-03-14T07:06:53.933Z,16
2018-03-14T07:07:44.336Z,15.9
2018-03-14T07:08:34.327Z,15.9
2018-03-14T07:09:23.838Z,15.9
2018-03-14T07:10:14.434Z,15.9
2018-03-14T07:11:04.531Z,16
2018-03-14T07:11:54.197Z,15.9
2018-03-14T07:12:44.351Z,15.9
2018-03-14T07:13:34.438Z,15.9
2018-03-14T07:14:24.477Z,15.9
2018-03-14T07:15:14.526Z,15.9
2018-03-14T07:16:04.585Z,15.9
2018-03-14T07:16:55.218Z,16
2018-03-14T07:17:44.161Z,16
2018-03-14T07:18:35.079Z,15.9
2018-03-14T07:19:24.573Z,15.9
2018-03-14T07:20:15.178Z,15.9
2018-03-14T07:21:04.777Z,15.9
2018-03-14T07:21:55.577Z,15.9
2018-03-14T07:22:45.643Z,15.9
2018-03-14T07:23:33.734Z,15.9
2018-03-14T07:24:24.930Z,15.9
2018-03-14T07:25:14.715Z,15.9
2018-03-14T07:26:05.889Z,15.9
2018-03-14T07:26:55.659Z,15.9
2018-03-14T07:27:45.219Z,15.9
2018-03-14T07:28:35.867Z,16
2018-03-14T07:29:25.524Z,16
2018-03-14T07:30:15.402Z,15.9
2018-03-14T07:31:06.200Z,15.9
2018-03-14T07:31:56.039Z,15.9
2018-03-14T07:32:46.330Z,15.9
2018-03-14T07:33:36.102Z,15.9
2018-03-14T07:34:26.498Z,15.9
2018-03-14T07:35:15.496Z,15.9
2018-03-14T07:36:06.274Z,15.9
2018-03-14T07:36:56.679Z,15.9
2018-03-14T07:37:46.134Z,16
2018-03-14T07:38:36.777Z,16
2018-03-14T07:39:25.596Z,16
2018-03-14T07:40:15.832Z,16.1
2018-03-14T07:41:05.187Z,16.1
2018-03-14T07:41:55.418Z,16.1
2018-03-14T07:42:45.816Z,16.1
2018-03-14T07:43:34.666Z,16.1
2018-03-14T07:44:26.081Z,16.1
2018-03-14T07:45:14.454Z,16.1
2018-03-14T07:46:05.716Z,16.1
2018-03-14T07:46:55.226Z,16.1
2018-03-14T07:47:45.763Z,16.1
2018-03-14T07:48:35.418Z,16.1
2018-03-14T07:49:25.733Z,16.1
2018-03-14T07:50:14.851Z,16.1
2018-03-14T07:51:06.279Z,16.1
2018-03-14T07:51:55.954Z,16.1
2018-03-14T07:52:45.768Z,16.1
2018-03-14T07:53:36.513Z,16.1
2018-03-14T07:54:26.218Z,16.1
2018-03-14T07:55:16.480Z,16.1
2018-03-14T07:56:05.352Z,16.1
2018-03-14T07:56:56.434Z,16.1
2018-03-14T07:57:45.871Z,16.1
2018-03-14T07:58:35.937Z,16.1
2018-03-14T07:59:26.900Z,16.1
2018-03-14T08:00:17.837Z,16.1
2018-03-14T08:01:06.045Z,16.1
2018-03-14T08:01:56.227Z,16.1
2018-03-14T08:02:46.694Z,16.1
2018-03-14T08:03:37.271Z,16.1
2018-03-14T08:04:26.983Z,16.1
2018-03-14T08:05:16.513Z,16.2
2018-03-14T08:06:07.203Z,16.2
2018-03-14T08:06:56.540Z,16.2
2018-03-14T08:07:46.511Z,16.2
2018-03-14T08:08:36.374Z,16.2
2018-03-14T08:09:26.699Z,16.1
2018-03-14T08:10:16.377Z,16.1
2018-03-14T08:11:06.735Z,16.1
2018-03-14T08:11:57.461Z,16.1
2018-03-14T08:12:47.600Z,16.1
2018-03-14T08:13:41.410Z,16.1
2018-03-14T08:14:28.465Z,16.1
2018-03-14T08:15:19.095Z,16.1
2018-03-14T08:16:09.438Z,16.1
2018-03-14T08:16:59.258Z,16.1
2018-03-14T08:17:49.275Z,16.1
2018-03-14T08:18:38.756Z,16.1
2018-03-14T08:19:29.422Z,16.1
2018-03-14T08:20:19.709Z,16.1
2018-03-14T08:21:09.797Z,16.1
2018-03-14T08:21:59.544Z,16.1
2018-03-14T08:22:49.033Z,16.1
2018-03-14T08:23:39.685Z,16.1
2018-03-14T08:24:29.459Z,16.1
2018-03-14T08:25:19.565Z,16.1
2018-03-14T08:26:10.012Z,16.1
2018-03-14T08:26:59.895Z,16.1
2018-03-14T08:27:50.330Z,16.1
2018-03-14T08:28:39.789Z,16.1
2018-03-14T08:29:30.152Z,16.1
2018-03-14T08:30:18.800Z,16.1
2018-03-14T08:31:10.484Z,16.1
2018-03-14T08:31:59.542Z,16.1
2018-03-14T08:32:50.067Z,16.1
2018-03-14T08:33:40.686Z,16.1
2018-03-14T08:34:29.638Z,16.1
2018-03-14T08:35:19.247Z,16.1
2018-03-14T08:36:10.856Z,16.1
2018-03-14T08:37:00.668Z,16.1
2018-03-14T08:37:50.992Z,16.1
2018-03-14T08:38:39.944Z,16.2
2018-03-14T08:39:30.091Z,16.2
2018-03-14T08:40:20.872Z,16.1
2018-03-14T08:41:10.110Z,16.1
2018-03-14T08:42:01.021Z,16.1
2018-03-14T08:42:50.780Z,16.1
2018-03-14T08:43:40.926Z,16.1
2018-03-14T08:44:31.489Z,16
2018-03-14T08:45:20.409Z,15.9
2018-03-14T08:46:11.589Z,15.9
2018-03-14T08:47:01.261Z,15.9
2018-03-14T08:47:50.599Z,15.9
2018-03-14T08:48:40.528Z,15.9
2018-03-14T08:49:31.883Z,15.9
2018-03-14T08:50:21.685Z,16
2018-03-14T08:51:11.136Z,15.9
2018-03-14T08:52:00.938Z,15.9
2018-03-14T08:52:51.793Z,15.9
2018-03-14T08:53:41.799Z,15.9
2018-03-14T08:54:32.020Z,16
2018-03-14T08:55:21.961Z,16.1
2018-03-14T08:56:11.749Z,16.1
2018-03-14T08:57:01.011Z,16.1
2018-03-14T08:57:52.190Z,16.1
2018-03-14T08:58:41.333Z,16.1
2018-03-14T08:59:31.884Z,16.1
2018-03-14T09:00:22.189Z,16.1
2018-03-14T09:01:11.652Z,16.1
2018-03-14T09:02:01.625Z,16.1
2018-03-14T09:02:51.986Z,16.2
2018-03-14T09:03:41.437Z,16.2
2018-03-14T09:04:31.247Z,16.2
2018-03-14T09:05:22.179Z,16.2
2018-03-14T09:06:12.494Z,16.2
2018-03-14T09:07:02.802Z,16.2
2018-03-14T09:07:52.602Z,16.2
2018-03-14T09:08:42.438Z,16.2
2018-03-14T09:09:33.047Z,16.2
2018-03-14T09:10:21.951Z,16.2
2018-03-14T09:11:12.475Z,16.2
2018-03-14T09:12:03.200Z,16.3
2018-03-14T09:12:52.664Z,16.4
2018-03-14T09:13:41.765Z,16.4
2018-03-14T09:14:31.522Z,16.6
2018-03-14T09:15:22.732Z,16.6
2018-03-14T09:16:10.514Z,16.6
2018-03-14T09:17:01.665Z,16.6
2018-03-14T09:17:52.409Z,16.6
2018-03-14T09:18:42.358Z,16.7
2018-03-14T09:19:31.350Z,16.7
2018-03-14T09:20:22.492Z,16.7
2018-03-14T09:21:13.580Z,16.8
2018-03-14T09:22:01.989Z,16.8
2018-03-14T09:22:51.691Z,16.8
2018-03-14T09:23:42.136Z,16.8
2018-03-14T09:24:33.354Z,16.8
2018-03-14T09:25:22.184Z,16.8
2018-03-14T09:26:12.796Z,16.6
2018-03-14T09:27:03.069Z,16.6
2018-03-14T09:27:53.208Z,16.6
2018-03-14T09:28:44.267Z,16.6
2018-03-14T09:29:33.708Z,16.6
2018-03-14T09:30:22.956Z,16.5
2018-03-14T09:31:12.489Z,16.5
2018-03-14T09:32:02.559Z,16.6
2018-03-14T09:32:51.691Z,16.6
2018-03-14T09:33:42.648Z,16.6
2018-03-14T09:34:34.361Z,16.6
2018-03-14T09:35:22.901Z,16.6
2018-03-14T09:36:13.265Z,16.6
2018-03-14T09:37:03.715Z,16.6
2018-03-14T09:37:54.548Z,16.6
2018-03-14T09:38:42.834Z,16.6
2018-03-14T09:39:32.775Z,16.6
2018-03-14T09:40:23.783Z,16.6
2018-03-14T09:41:13.965Z,16.6
2018-03-14T09:42:04.271Z,16.5
2018-03-14T09:42:54.410Z,16.4
2018-03-14T09:43:44.353Z,16.4
2018-03-14T09:44:34.793Z,16.4
2018-03-14T09:45:24.436Z,16.4
2018-03-14T09:46:14.405Z,16.4
2018-03-14T09:47:04.593Z,16.4
2018-03-14T09:47:55.158Z,16.4
2018-03-14T09:48:44.865Z,16.4
2018-03-14T09:49:34.444Z,16.4
2018-03-14T09:50:23.780Z,16.4
2018-03-14T09:51:14.129Z,16.4
2018-03-14T09:52:05.025Z,16.4
2018-03-14T09:52:54.348Z,16.4
2018-03-14T09:53:45.005Z,16.4
2018-03-14T09:54:34.152Z,16.4
2018-03-14T09:55:24.585Z,16.4
2018-03-14T09:56:15.750Z,16.4
2018-03-14T09:57:06.067Z,16.4
2018-03-14T09:57:54.307Z,16.4
2018-03-14T09:58:45.317Z,16.6
2018-03-14T09:59:34.348Z,16.7
2018-03-14T10:00:25.159Z,16.8
2018-03-14T10:01:15.728Z,16.8
2018-03-14T10:02:05.003Z,16.9
2018-03-14T10:02:54.669Z,16.9
2018-03-14T10:03:45.121Z,16.9
2018-03-14T10:04:35.378Z,16.9
2018-03-14T10:06:16.891Z,17.1
2018-03-14T10:07:05.023Z,17.1
2018-03-14T10:07:56.079Z,17.1
2018-03-14T10:08:45.779Z,17.1
2018-03-14T10:09:36.320Z,17.1
2018-03-14T10:10:26.099Z,17.2
2018-03-14T10:11:16.234Z,17.2
2018-03-14T10:12:05.819Z,17.2
2018-03-14T10:12:55.606Z,17.3
2018-03-14T10:13:46.601Z,17.3
2018-03-14T10:14:36.871Z,17.3
2018-03-14T10:15:26.298Z,17.3
2018-03-14T10:16:15.701Z,17.3
2018-03-14T10:17:06.592Z,17.3
2018-03-14T10:17:56.263Z,17.3
2018-03-14T10:18:46.218Z,17.3
2018-03-14T10:19:36.346Z,17.3
2018-03-14T10:20:26.388Z,17.3
2018-03-14T10:21:16.690Z,17.3
2018-03-14T10:22:06.151Z,17.4
2018-03-14T10:22:56.623Z,17.4
2018-03-14T10:23:47.157Z,17.4
2018-03-14T10:24:37.110Z,17.4
2018-03-14T10:25:26.801Z,17.4
2018-03-14T10:26:17.628Z,17.4
2018-03-14T10:27:06.340Z,17.4
2018-03-14T10:27:57.036Z,17.4
2018-03-14T10:28:47.917Z,17.4
2018-03-14T10:29:37.671Z,17.4
2018-03-14T10:30:27.120Z,17.4
2018-03-14T10:31:17.628Z,17.4
2018-03-14T10:32:07.974Z,17.4
2018-03-14T10:32:58.320Z,17.4
2018-03-14T10:33:47.005Z,17.4
2018-03-14T10:34:37.159Z,17.4
2018-03-14T10:35:28.119Z,17.4
2018-03-14T10:36:17.510Z,17.4
2018-03-14T10:37:08.623Z,17.4
2018-03-14T10:37:57.892Z,17.4
2018-03-14T10:38:48.383Z,17.4
2018-03-14T10:39:37.786Z,17.4
2018-03-14T10:40:26.975Z,17.4
2018-03-14T10:41:19.202Z,17.4
2018-03-14T10:42:08.286Z,17.4
2018-03-14T10:42:58.042Z,17.4
2018-03-14T10:43:47.228Z,17.4
2018-03-14T10:44:38.779Z,17.4
2018-03-14T10:45:29.147Z,17.4
2018-03-14T10:46:17.591Z,17.4
2018-03-14T10:47:07.984Z,17.4
2018-03-14T10:47:59.167Z,17.4
2018-03-14T10:48:47.792Z,17.4
2018-03-14T10:49:38.736Z,17.4
2018-03-14T10:50:27.919Z,17.4
2018-03-14T10:51:18.311Z,17.4
2018-03-14T10:52:09.106Z,17.4
2018-03-14T10:52:59.753Z,17.4
2018-03-14T10:53:48.143Z,17.4
2018-03-14T10:54:40.176Z,17.4
2018-03-14T10:55:29.161Z,17.4
2018-03-14T10:56:19.715Z,17.4
2018-03-14T10:57:08.614Z,17.4
2018-03-14T10:57:59.545Z,17.4
2018-03-14T10:58:50.072Z,17.4
2018-03-14T10:59:40.051Z,17.4
2018-03-14T11:00:29.779Z,17.4
2018-03-14T11:01:19.593Z,17.4
2018-03-14T11:02:09.548Z,17.4
2018-03-14T11:02:59.386Z,17.4
2018-03-14T11:03:49.460Z,17.4
2018-03-14T11:04:40.003Z,17.4
2018-03-14T11:05:30.007Z,17.4
2018-03-14T11:06:19.466Z,17.4
2018-03-14T11:07:09.728Z,17.4
2018-03-14T11:08:00.610Z,17.4
2018-03-14T11:08:49.915Z,17.4
2018-03-14T11:09:39.023Z,17.5
2018-03-14T11:10:30.123Z,17.5
2018-03-14T11:11:20.405Z,17.4
2018-03-14T11:12:10.597Z,17.4